Aviation Digital Data Service (ADDS)

Output produced by METARs form (1827 UTC 16 August 2018)
found at http://www.aviationweather.gov/adds/metars/
 
TAF SABE 161700Z 1618/1718 03010KT CAVOK TX17/1718Z TN10/1711Z 
     BECMG 1706/1708 36010KT 
     TEMPO 1708/1712 7000 NSC
       
TAF SACO 161100Z 1612/1712 02015G20KT CAVOK TX24/1618Z TN06/1710Z 
     BECMG 1706/1706 36005KT CAVOK
       
TAF SAAR 161700Z 1618/1718 02010KT CAVOK TX19/1718Z TN06/1711Z 
     BECMG 1622/1624 02005KT 
     TEMPO 1706/1712 2000 MIFGBR NSC 
     BECMG 1712/1715 36010KT
       
TAF SABE 161700Z 1618/1718 03010KT CAVOK TX17/1718Z TN10/1711Z 
     BECMG 1706/1708 36010KT 
     TEMPO 1708/1712 7000 NSC
       
TAF SACO 161100Z 1612/1712 02015G20KT CAVOK TX24/1618Z TN06/1710Z 
     BECMG 1706/1706 36005KT CAVOK
       
TAF SADF 161700Z 1618/1818 36010KT CAVOK TX20/1718Z TN09/1711Z 
     TEMPO 05005KT 1707/1712 3000 BR
       
TAF SAEZ 161700Z 1618/1718 02010KT CAVOK TX19/1718Z TN10/1709Z 
     BECMG 1703/1705 04005KT 
     BECMG 1706/1708 4000 BR NSC 
     BECMG 1709/1710 0500 FG 
     BECMG 1712/1714 04005KT 5000 BR 
     BECMG 1714/1715 02010KT CAVOK
       
TAF SAME 161700Z 1618/1718 05010KT CAVOK TX23/1620Z TN04/1710Z
       
TAF SANR 160500Z 1606/1706 14010KT CAVOK TX26/1618Z TN05/1610Z 
     BECMG 1610/1612 05005KT
       
TAF SANT 161100Z 1612/1712 02010KT 7000 FU NSC TX26/1618Z TN07/1710Z 
     BECMG 1700/1703 20005KT 8000 NSC
       
TAF SARE 161700Z 1618/1718 12005KT 8000 NSC TX26/1718Z TN10/1710Z 
     PROB30 1707/1711 VRB03KT 5000 BR NSC
       
TAF SARF 161700Z 1618/1718 16005KT CAVOK TX26/1718Z TN10/1710Z 
     PROB30 1707/1711 VRB03KT 5000 BR NSC
       
TAF SARI 161700Z 1618/1718 36005KT CAVOK TX27/1718Z TN12/1710Z 
     BECMG 1704/1705 3000 BR 
     PROB40 1708/1710 0500 FG SCT005
       
TAF SARP 161700Z 1618/1718 05005KT CAVOK TX27/1718Z TN10/1710Z 
     PROB30 1707/1711 VRB03KT 2500 BR
       
TAF SASA 161100Z 1612/1712 05005KT CAVOK TX22/1615Z TN06/1710Z 
     BECMG 1618/1621 18010KT SCT030
       
TAF SASJ 161100Z 1612/1712 09010KT CAVOK TX25/1615Z TN04/1710Z 
     BECMG 1700/1703 20005KT SCT035
       
TAF SAVC 161700Z 1618/1718 29010G20KT 9999 BKN060 SCT200 TX17/1618Z TN09/1711Z 
     BECMG 1619/1621 29008KT CAVOK 
     BECMG 1623/1701 VRB08KT
       
TAF SAWE 161700Z 1618/1718 27020G30KT CAVOK TX07/1619Z TN00/1712Z 
     BECMG 1620/1622 9999 SCT030 BKN200 
     BECMG 1700/1707 34015KT 3000 SNRA BKN010 OVC030
       
TAF SAWG 161700Z 1618/1718 25020KT CAVOK TX11/1619Z TN06/1710Z 
     BECMG 1619/1621 25020G40KT 9999 SCT030 SCT200 
     BECMG 1621/1703 VRB08KT 
     TEMPO 1623/1706 02010KT
       
TAF SAWH 160500Z 1606/1706 36015KT 9999 BKN030 BKN040 TX08/1618Z TN03/1610Z 
     TEMPO 1606/1613 34012KT 
     BECMG 1613/1615 26020KT BKN020 SCT030 
     TEMPO 1614/1621 5000 SHRA 
     BECMG 1700/1702 VRB07KT
       
TAF SAZM 161700Z 1618/1718 34020KT CAVOK TX18/1718Z TN09/1710Z 
     TEMPO 1621/1700 34015G25KT 
     BECMG 1712/1715 36015KT
       
TAF SAZN 161700Z 1618/1718 VRB03KT CAVOK TX18/1718Z TN08/1711Z 
     BECMG 1700/1702 SCT030 
     BECMG 1706/1708 27010KT BKN020
       
TAF SAZS 161700Z 1618/1718 32020KT 8000 SHRA SCT020 BKN030 TX09/1718Z TN04/1707Z 
     BECMG 1700/1702 32010KT 9999 NSW SCT040 
     BECMG 1707/1710 34005KT SCT015 BKN030 
     BECMG 1713/1715 5000 BR DZRA
       
TAF SARI 161700Z 1618/1718 36005KT CAVOK TX27/1718Z TN12/1710Z 
     BECMG 1704/1705 3000 BR 
     PROB40 1708/1710 0500 FG SCT005
       
TAF SAVC 161700Z 1618/1718 29010G20KT 9999 BKN060 SCT200 TX17/1618Z TN09/1711Z 
     BECMG 1619/1621 29008KT CAVOK 
     BECMG 1623/1701 VRB08KT
       
TAF SAME 161700Z 1618/1718 05010KT CAVOK TX23/1620Z TN04/1710Z
       
TAF SARF 161700Z 1618/1718 16005KT CAVOK TX26/1718Z TN10/1710Z 
     PROB30 1707/1711 VRB03KT 5000 BR NSC
       
TAF SASJ 161100Z 1612/1712 09010KT CAVOK TX25/1615Z TN04/1710Z 
     BECMG 1700/1703 20005KT SCT035
       
TAF SASA 161100Z 1612/1712 05005KT CAVOK TX22/1615Z TN06/1710Z 
     BECMG 1618/1621 18010KT SCT030
       
TAF SAZM 161700Z 1618/1718 34020KT CAVOK TX18/1718Z TN09/1710Z 
     TEMPO 1621/1700 34015G25KT 
     BECMG 1712/1715 36015KT
       
TAF SAEZ 161700Z 1618/1718 02010KT CAVOK TX19/1718Z TN10/1709Z 
     BECMG 1703/1705 04005KT 
     BECMG 1706/1708 4000 BR NSC 
     BECMG 1709/1710 0500 FG 
     BECMG 1712/1714 04005KT 5000 BR 
     BECMG 1714/1715 02010KT CAVOK
       
TAF SARP 161700Z 1618/1718 05005KT CAVOK TX27/1718Z TN10/1710Z 
     PROB30 1707/1711 VRB03KT 2500 BR
       
TAF SAZN 161700Z 1618/1718 VRB03KT CAVOK TX18/1718Z TN08/1711Z 
     BECMG 1700/1702 SCT030 
     BECMG 1706/1708 27010KT BKN020
       
TAF SARE 161700Z 1618/1718 12005KT 8000 NSC TX26/1718Z TN10/1710Z 
     PROB30 1707/1711 VRB03KT 5000 BR NSC
       
TAF SAWG 161700Z 1618/1718 25020KT CAVOK TX11/1619Z TN06/1710Z 
     BECMG 1619/1621 25020G40KT 9999 SCT030 SCT200 
     BECMG 1621/1703 VRB08KT 
     TEMPO 1623/1706 02010KT
       
TAF SAWE 161700Z 1618/1718 27020G30KT CAVOK TX07/1619Z TN00/1712Z 
     BECMG 1620/1622 9999 SCT030 BKN200 
     BECMG 1700/1707 34015KT 3000 SNRA BKN010 OVC030
       
TAF SAAR 161700Z 1618/1718 02010KT CAVOK TX19/1718Z TN06/1711Z 
     BECMG 1622/1624 02005KT 
     TEMPO 1706/1712 2000 MIFGBR NSC 
     BECMG 1712/1715 36010KT
       
TAF SAAR 161700Z 1618/1718 02010KT CAVOK TX19/1718Z TN06/1711Z 
     BECMG 1622/1624 02005KT 
     TEMPO 1706/1712 2000 MIFGBR NSC 
     BECMG 1712/1715 36010KT
       
TAF SABE 161700Z 1618/1718 03010KT CAVOK TX17/1718Z TN10/1711Z 
     BECMG 1706/1708 36010KT 
     TEMPO 1708/1712 7000 NSC
       
TAF SACO 161100Z 1612/1712 02015G20KT CAVOK TX24/1618Z TN06/1710Z 
     BECMG 1706/1706 36005KT CAVOK
       
TAF SADF 161700Z 1618/1818 36010KT CAVOK TX20/1718Z TN09/1711Z 
     TEMPO 05005KT 1707/1712 3000 BR
       
TAF SAEZ 161700Z 1618/1718 02010KT CAVOK TX19/1718Z TN10/1709Z 
     BECMG 1703/1705 04005KT 
     BECMG 1706/1708 4000 BR NSC 
     BECMG 1709/1710 0500 FG 
     BECMG 1712/1714 04005KT 5000 BR 
     BECMG 1714/1715 02010KT CAVOK
       
TAF SAME 161700Z 1618/1718 05010KT CAVOK TX23/1620Z TN04/1710Z
       
TAF SANR 160500Z 1606/1706 14010KT CAVOK TX26/1618Z TN05/1610Z 
     BECMG 1610/1612 05005KT
       
TAF SANT 161100Z 1612/1712 02010KT 7000 FU NSC TX26/1618Z TN07/1710Z 
     BECMG 1700/1703 20005KT 8000 NSC
       
TAF SARE 161700Z 1618/1718 12005KT 8000 NSC TX26/1718Z TN10/1710Z 
     PROB30 1707/1711 VRB03KT 5000 BR NSC
       
TAF SARF 161700Z 1618/1718 16005KT CAVOK TX26/1718Z TN10/1710Z 
     PROB30 1707/1711 VRB03KT 5000 BR NSC
       
TAF SARI 161700Z 1618/1718 36005KT CAVOK TX27/1718Z TN12/1710Z 
     BECMG 1704/1705 3000 BR 
     PROB40 1708/1710 0500 FG SCT005
       
TAF SARP 161700Z 1618/1718 05005KT CAVOK TX27/1718Z TN10/1710Z 
     PROB30 1707/1711 VRB03KT 2500 BR
       
TAF SASA 161100Z 1612/1712 05005KT CAVOK TX22/1615Z TN06/1710Z 
     BECMG 1618/1621 18010KT SCT030
       
TAF SASJ 161100Z 1612/1712 09010KT CAVOK TX25/1615Z TN04/1710Z 
     BECMG 1700/1703 20005KT SCT035
       
TAF SAVC 161700Z 1618/1718 29010G20KT 9999 BKN060 SCT200 TX17/1618Z TN09/1711Z 
     BECMG 1619/1621 29008KT CAVOK 
     BECMG 1623/1701 VRB08KT
       
TAF SAWE 161700Z 1618/1718 27020G30KT CAVOK TX07/1619Z TN00/1712Z 
     BECMG 1620/1622 9999 SCT030 BKN200 
     BECMG 1700/1707 34015KT 3000 SNRA BKN010 OVC030
       
TAF SAWG 161700Z 1618/1718 25020KT CAVOK TX11/1619Z TN06/1710Z 
     BECMG 1619/1621 25020G40KT 9999 SCT030 SCT200 
     BECMG 1621/1703 VRB08KT 
     TEMPO 1623/1706 02010KT
       
TAF SAWH 160500Z 1606/1706 36015KT 9999 BKN030 BKN040 TX08/1618Z TN03/1610Z 
     TEMPO 1606/1613 34012KT 
     BECMG 1613/1615 26020KT BKN020 SCT030 
     TEMPO 1614/1621 5000 SHRA 
     BECMG 1700/1702 VRB07KT
       
TAF SAZM 161700Z 1618/1718 34020KT CAVOK TX18/1718Z TN09/1710Z 
     TEMPO 1621/1700 34015G25KT 
     BECMG 1712/1715 36015KT
       
TAF SAZN 161700Z 1618/1718 VRB03KT CAVOK TX18/1718Z TN08/1711Z 
     BECMG 1700/1702 SCT030 
     BECMG 1706/1708 27010KT BKN020
       
TAF SAZS 161700Z 1618/1718 32020KT 8000 SHRA SCT020 BKN030 TX09/1718Z TN04/1707Z 
     BECMG 1700/1702 32010KT 9999 NSW SCT040 
     BECMG 1707/1710 34005KT SCT015 BKN030 
     BECMG 1713/1715 5000 BR DZRA
       
TAF SASA 161100Z 1612/1712 05005KT CAVOK TX22/1615Z TN06/1710Z 
     BECMG 1618/1621 18010KT SCT030
       
TAF SAZS 161700Z 1618/1718 32020KT 8000 SHRA SCT020 BKN030 TX09/1718Z TN04/1707Z 
     BECMG 1700/1702 32010KT 9999 NSW SCT040 
     BECMG 1707/1710 34005KT SCT015 BKN030 
     BECMG 1713/1715 5000 BR DZRA
       
TAF SADF 161700Z 1618/1818 36010KT CAVOK TX20/1718Z TN09/1711Z 
     TEMPO 05005KT 1707/1712 3000 BR
       
TAF SAAR 161700Z 1618/1718 02010KT CAVOK TX19/1718Z TN06/1711Z 
     BECMG 1622/1624 02005KT 
     TEMPO 1706/1712 2000 MIFGBR NSC 
     BECMG 1712/1715 36010KT
       
TAF SABE 161700Z 1618/1718 03010KT CAVOK TX17/1718Z TN10/1711Z 
     BECMG 1706/1708 36010KT 
     TEMPO 1708/1712 7000 NSC
       
TAF SACO 161100Z 1612/1712 02015G20KT CAVOK TX24/1618Z TN06/1710Z 
     BECMG 1706/1706 36005KT CAVOK
       
TAF SADF 161700Z 1618/1818 36010KT CAVOK TX20/1718Z TN09/1711Z 
     TEMPO 05005KT 1707/1712 3000 BR
       
TAF SAEZ 161700Z 1618/1718 02010KT CAVOK TX19/1718Z TN10/1709Z 
     BECMG 1703/1705 04005KT 
     BECMG 1706/1708 4000 BR NSC 
     BECMG 1709/1710 0500 FG 
     BECMG 1712/1714 04005KT 5000 BR 
     BECMG 1714/1715 02010KT CAVOK
       
TAF SAME 161700Z 1618/1718 05010KT CAVOK TX23/1620Z TN04/1710Z
       
TAF SANR 160500Z 1606/1706 14010KT CAVOK TX26/1618Z TN05/1610Z 
     BECMG 1610/1612 05005KT
       
TAF SANT 161100Z 1612/1712 02010KT 7000 FU NSC TX26/1618Z TN07/1710Z 
     BECMG 1700/1703 20005KT 8000 NSC
       
TAF SARE 161700Z 1618/1718 12005KT 8000 NSC TX26/1718Z TN10/1710Z 
     PROB30 1707/1711 VRB03KT 5000 BR NSC
       
TAF SARF 161700Z 1618/1718 16005KT CAVOK TX26/1718Z TN10/1710Z 
     PROB30 1707/1711 VRB03KT 5000 BR NSC
       
TAF SARI 161700Z 1618/1718 36005KT CAVOK TX27/1718Z TN12/1710Z 
     BECMG 1704/1705 3000 BR 
     PROB40 1708/1710 0500 FG SCT005
       
TAF SARP 161700Z 1618/1718 05005KT CAVOK TX27/1718Z TN10/1710Z 
     PROB30 1707/1711 VRB03KT 2500 BR
       
TAF SASA 161100Z 1612/1712 05005KT CAVOK TX22/1615Z TN06/1710Z 
     BECMG 1618/1621 18010KT SCT030
       
TAF SASJ 161100Z 1612/1712 09010KT CAVOK TX25/1615Z TN04/1710Z 
     BECMG 1700/1703 20005KT SCT035
       
TAF SAVC 161700Z 1618/1718 29010G20KT 9999 BKN060 SCT200 TX17/1618Z TN09/1711Z 
     BECMG 1619/1621 29008KT CAVOK 
     BECMG 1623/1701 VRB08KT
       
TAF SAWE 161700Z 1618/1718 27020G30KT CAVOK TX07/1619Z TN00/1712Z 
     BECMG 1620/1622 9999 SCT030 BKN200 
     BECMG 1700/1707 34015KT 3000 SNRA BKN010 OVC030
       
TAF SAWG 161700Z 1618/1718 25020KT CAVOK TX11/1619Z TN06/1710Z 
     BECMG 1619/1621 25020G40KT 9999 SCT030 SCT200 
     BECMG 1621/1703 VRB08KT 
     TEMPO 1623/1706 02010KT
       
TAF SAWH 160500Z 1606/1706 36015KT 9999 BKN030 BKN040 TX08/1618Z TN03/1610Z 
     TEMPO 1606/1613 34012KT 
     BECMG 1613/1615 26020KT BKN020 SCT030 
     TEMPO 1614/1621 5000 SHRA 
     BECMG 1700/1702 VRB07KT
       
TAF SAZM 161700Z 1618/1718 34020KT CAVOK TX18/1718Z TN09/1710Z 
     TEMPO 1621/1700 34015G25KT 
     BECMG 1712/1715 36015KT
       
TAF SAZN 161700Z 1618/1718 VRB03KT CAVOK TX18/1718Z TN08/1711Z 
     BECMG 1700/1702 SCT030 
     BECMG 1706/1708 27010KT BKN020
       
TAF SAZS 161700Z 1618/1718 32020KT 8000 SHRA SCT020 BKN030 TX09/1718Z TN04/1707Z 
     BECMG 1700/1702 32010KT 9999 NSW SCT040 
     BECMG 1707/1710 34005KT SCT015 BKN030 
     BECMG 1713/1715 5000 BR DZRA
       
TAF SANT 161100Z 1612/1712 02010KT 7000 FU NSC TX26/1618Z TN07/1710Z 
     BECMG 1700/1703 20005KT 8000 NSC
       
TAF SAWH 160500Z 1606/1706 36015KT 9999 BKN030 BKN040 TX08/1618Z TN03/1610Z 
     TEMPO 1606/1613 34012KT 
     BECMG 1613/1615 26020KT BKN020 SCT030 
     TEMPO 1614/1621 5000 SHRA 
     BECMG 1700/1702 VRB07KT